sensor_id;sensor_type;location;lat;lon;timestamp;P1;durP1;ratioP1;P2;durP2;ratioP2
15665;SDS011;20725;51.196;3.510;2023-01-24T00:00:15;30.97;;;24.53;;
15665;SDS011;20725;51.196;3.510;2023-01-24T00:02:43;33.77;;;25.77;;
15665;SDS011;20725;51.196;3.510;2023-01-24T00:05:10;32.00;;;25.10;;
15665;SDS011;20725;51.196;3.510;2023-01-24T00:07:38;30.73;;;24.40;;
15665;SDS011;20725;51.196;3.510;2023-01-24T00:10:05;35.30;;;25.57;;
15665;SDS011;20725;51.196;3.510;2023-01-24T00:12:33;32.67;;;25.00;;
15665;SDS011;20725;51.196;3.510;2023-01-24T00:15:00;35.63;;;25.30;;
15665;SDS011;20725;51.196;3.510;2023-01-24T00:17:27;34.17;;;25.03;;
15665;SDS011;20725;51.196;3.510;2023-01-24T00:19:54;38.90;;;27.30;;
15665;SDS011;20725;51.196;3.510;2023-01-24T00:22:21;32.67;;;25.93;;
15665;SDS011;20725;51.196;3.510;2023-01-24T00:24:49;29.47;;;23.93;;
15665;SDS011;20725;51.196;3.510;2023-01-24T00:27:16;31.50;;;25.27;;
15665;SDS011;20725;51.196;3.510;2023-01-24T00:29:43;32.67;;;25.13;;
15665;SDS011;20725;51.196;3.510;2023-01-24T00:32:10;31.33;;;23.53;;
15665;SDS011;20725;51.196;3.510;2023-01-24T00:34:37;35.13;;;26.10;;
15665;SDS011;20725;51.196;3.510;2023-01-24T00:37:04;32.17;;;25.20;;
15665;SDS011;20725;51.196;3.510;2023-01-24T00:39:30;34.03;;;25.17;;
15665;SDS011;20725;51.196;3.510;2023-01-24T00:41:59;32.23;;;24.87;;
15665;SDS011;20725;51.196;3.510;2023-01-24T00:44:26;32.50;;;24.47;;
15665;SDS011;20725;51.196;3.510;2023-01-24T00:46:53;29.77;;;23.00;;
15665;SDS011;20725;51.196;3.510;2023-01-24T00:49:19;31.57;;;24.73;;
15665;SDS011;20725;51.196;3.510;2023-01-24T00:51:46;31.90;;;24.33;;
15665;SDS011;20725;51.196;3.510;2023-01-24T00:54:13;32.97;;;25.13;;
15665;SDS011;20725;51.196;3.510;2023-01-24T00:56:40;33.40;;;24.47;;
15665;SDS011;20725;51.196;3.510;2023-01-24T00:59:09;33.93;;;24.97;;
15665;SDS011;20725;51.196;3.510;2023-01-24T01:04:05;32.37;;;24.43;;
15665;SDS011;20725;51.196;3.510;2023-01-24T01:06:32;36.20;;;25.77;;
15665;SDS011;20725;51.196;3.510;2023-01-24T01:08:59;30.23;;;23.97;;
15665;SDS011;20725;51.196;3.510;2023-01-24T01:11:26;33.20;;;25.30;;
15665;SDS011;20725;51.196;3.510;2023-01-24T01:13:53;31.53;;;24.93;;
15665;SDS011;20725;51.196;3.510;2023-01-24T01:16:22;31.77;;;23.93;;
15665;SDS011;20725;51.196;3.510;2023-01-24T01:18:50;28.37;;;22.97;;
15665;SDS011;20725;51.196;3.510;2023-01-24T01:21:20;29.47;;;23.90;;
15665;SDS011;20725;51.196;3.510;2023-01-24T01:23:48;30.17;;;24.27;;
15665;SDS011;20725;51.196;3.510;2023-01-24T01:26:16;31.50;;;24.07;;
15665;SDS011;20725;51.196;3.510;2023-01-24T01:28:43;28.87;;;23.87;;
15665;SDS011;20725;51.196;3.510;2023-01-24T01:31:11;31.20;;;23.47;;
15665;SDS011;20725;51.196;3.510;2023-01-24T01:33:39;31.27;;;24.73;;
15665;SDS011;20725;51.196;3.510;2023-01-24T01:36:06;31.97;;;25.00;;
15665;SDS011;20725;51.196;3.510;2023-01-24T01:38:34;29.93;;;22.93;;
15665;SDS011;20725;51.196;3.510;2023-01-24T01:41:00;28.97;;;23.03;;
15665;SDS011;20725;51.196;3.510;2023-01-24T01:43:29;33.40;;;25.90;;
15665;SDS011;20725;51.196;3.510;2023-01-24T01:45:57;30.80;;;24.63;;
15665;SDS011;20725;51.196;3.510;2023-01-24T01:48:29;29.40;;;23.57;;
15665;SDS011;20725;51.196;3.510;2023-01-24T01:51:04;31.73;;;24.90;;
15665;SDS011;20725;51.196;3.510;2023-01-24T01:53:37;31.60;;;24.17;;
15665;SDS011;20725;51.196;3.510;2023-01-24T01:56:09;29.90;;;23.23;;
15665;SDS011;20725;51.196;3.510;2023-01-24T01:58:38;30.60;;;24.40;;
15665;SDS011;20725;51.196;3.510;2023-01-24T02:01:07;32.40;;;24.47;;
15665;SDS011;20725;51.196;3.510;2023-01-24T02:03:35;31.27;;;25.07;;
15665;SDS011;20725;51.196;3.510;2023-01-24T02:08:57;33.63;;;25.03;;
15665;SDS011;20725;51.196;3.510;2023-01-24T02:11:25;31.33;;;23.57;;
15665;SDS011;20725;51.196;3.510;2023-01-24T02:14:06;31.47;;;24.73;;
15665;SDS011;20725;51.196;3.510;2023-01-24T02:16:52;30.60;;;23.67;;
15665;SDS011;20725;51.196;3.510;2023-01-24T02:19:23;32.47;;;25.83;;
15665;SDS011;20725;51.196;3.510;2023-01-24T02:22:16;32.63;;;24.40;;
15665;SDS011;20725;51.196;3.510;2023-01-24T02:24:50;32.30;;;24.50;;
15665;SDS011;20725;51.196;3.510;2023-01-24T02:27:29;30.27;;;23.73;;
15665;SDS011;20725;51.196;3.510;2023-01-24T02:29:56;32.13;;;25.53;;
15665;SDS011;20725;51.196;3.510;2023-01-24T02:32:24;32.30;;;24.10;;
15665;SDS011;20725;51.196;3.510;2023-01-24T02:34:51;30.07;;;23.10;;
15665;SDS011;20725;51.196;3.510;2023-01-24T02:37:18;30.60;;;24.07;;
15665;SDS011;20725;51.196;3.510;2023-01-24T02:39:47;31.00;;;24.37;;
15665;SDS011;20725;51.196;3.510;2023-01-24T02:42:20;29.37;;;24.80;;
15665;SDS011;20725;51.196;3.510;2023-01-24T02:44:52;32.03;;;24.73;;
15665;SDS011;20725;51.196;3.510;2023-01-24T02:47:26;32.13;;;24.13;;
15665;SDS011;20725;51.196;3.510;2023-01-24T02:49:57;33.53;;;24.87;;
15665;SDS011;20725;51.196;3.510;2023-01-24T02:52:24;31.73;;;25.30;;
15665;SDS011;20725;51.196;3.510;2023-01-24T02:55:08;32.93;;;25.10;;
15665;SDS011;20725;51.196;3.510;2023-01-24T02:57:35;30.67;;;24.17;;
15665;SDS011;20725;51.196;3.510;2023-01-24T03:00:21;31.33;;;23.93;;
15665;SDS011;20725;51.196;3.510;2023-01-24T03:02:48;32.07;;;25.20;;
15665;SDS011;20725;51.196;3.510;2023-01-24T03:05:15;33.80;;;25.73;;
15665;SDS011;20725;51.196;3.510;2023-01-24T03:07:42;34.00;;;24.83;;
15665;SDS011;20725;51.196;3.510;2023-01-24T03:10:09;31.77;;;25.13;;
15665;SDS011;20725;51.196;3.510;2023-01-24T03:12:37;35.47;;;25.53;;
15665;SDS011;20725;51.196;3.510;2023-01-24T03:15:23;31.83;;;24.37;;
15665;SDS011;20725;51.196;3.510;2023-01-24T03:18:08;31.70;;;24.40;;
15665;SDS011;20725;51.196;3.510;2023-01-24T03:20:52;32.20;;;24.30;;
15665;SDS011;20725;51.196;3.510;2023-01-24T03:23:36;34.03;;;26.67;;
15665;SDS011;20725;51.196;3.510;2023-01-24T03:26:21;33.37;;;25.97;;
15665;SDS011;20725;51.196;3.510;2023-01-24T03:29:05;32.50;;;25.50;;
15665;SDS011;20725;51.196;3.510;2023-01-24T03:31:51;35.20;;;25.90;;
15665;SDS011;20725;51.196;3.510;2023-01-24T03:34:35;33.37;;;25.70;;
15665;SDS011;20725;51.196;3.510;2023-01-24T03:37:10;34.57;;;25.77;;
15665;SDS011;20725;51.196;3.510;2023-01-24T03:39:37;34.67;;;26.23;;
15665;SDS011;20725;51.196;3.510;2023-01-24T03:42:24;34.00;;;27.80;;
15665;SDS011;20725;51.196;3.510;2023-01-24T03:44:52;31.83;;;25.37;;
15665;SDS011;20725;51.196;3.510;2023-01-24T03:47:20;36.03;;;27.33;;
15665;SDS011;20725;51.196;3.510;2023-01-24T03:49:47;36.60;;;28.40;;
15665;SDS011;20725;51.196;3.510;2023-01-24T03:52:31;33.67;;;26.70;;
15665;SDS011;20725;51.196;3.510;2023-01-24T03:54:59;37.27;;;27.47;;
15665;SDS011;20725;51.196;3.510;2023-01-24T03:57:29;37.30;;;27.27;;
15665;SDS011;20725;51.196;3.510;2023-01-24T03:59:56;36.13;;;26.90;;
15665;SDS011;20725;51.196;3.510;2023-01-24T04:02:24;37.57;;;28.53;;
15665;SDS011;20725;51.196;3.510;2023-01-24T04:04:51;37.60;;;28.20;;
15665;SDS011;20725;51.196;3.510;2023-01-24T04:07:35;40.17;;;30.07;;
15665;SDS011;20725;51.196;3.510;2023-01-24T04:10:02;37.50;;;28.63;;
15665;SDS011;20725;51.196;3.510;2023-01-24T04:12:30;41.83;;;29.83;;
15665;SDS011;20725;51.196;3.510;2023-01-24T04:14:57;39.80;;;28.40;;
15665;SDS011;20725;51.196;3.510;2023-01-24T04:17:25;37.57;;;28.83;;
15665;SDS011;20725;51.196;3.510;2023-01-24T04:19:52;42.53;;;30.23;;
15665;SDS011;20725;51.196;3.510;2023-01-24T04:22:19;40.10;;;30.87;;
15665;SDS011;20725;51.196;3.510;2023-01-24T04:24:46;41.63;;;32.20;;
15665;SDS011;20725;51.196;3.510;2023-01-24T04:27:13;42.10;;;31.80;;
15665;SDS011;20725;51.196;3.510;2023-01-24T04:29:40;39.93;;;29.87;;
15665;SDS011;20725;51.196;3.510;2023-01-24T04:32:06;42.40;;;31.70;;
15665;SDS011;20725;51.196;3.510;2023-01-24T04:34:35;42.17;;;30.77;;
15665;SDS011;20725;51.196;3.510;2023-01-24T04:37:02;39.90;;;29.37;;
15665;SDS011;20725;51.196;3.510;2023-01-24T04:39:29;43.67;;;30.83;;
15665;SDS011;20725;51.196;3.510;2023-01-24T04:41:55;41.40;;;31.57;;
15665;SDS011;20725;51.196;3.510;2023-01-24T04:44:22;39.63;;;30.53;;
15665;SDS011;20725;51.196;3.510;2023-01-24T04:46:49;44.33;;;32.17;;
15665;SDS011;20725;51.196;3.510;2023-01-24T04:49:16;39.83;;;29.47;;
15665;SDS011;20725;51.196;3.510;2023-01-24T04:51:45;41.47;;;31.53;;
15665;SDS011;20725;51.196;3.510;2023-01-24T04:54:13;40.93;;;31.87;;
15665;SDS011;20725;51.196;3.510;2023-01-24T04:56:40;39.53;;;30.20;;
15665;SDS011;20725;51.196;3.510;2023-01-24T04:59:06;44.13;;;31.17;;
15665;SDS011;20725;51.196;3.510;2023-01-24T05:01:34;41.00;;;30.43;;
15665;SDS011;20725;51.196;3.510;2023-01-24T05:04:00;41.73;;;31.03;;
15665;SDS011;20725;51.196;3.510;2023-01-24T05:06:27;43.23;;;29.70;;
15665;SDS011;20725;51.196;3.510;2023-01-24T05:08:56;39.87;;;29.83;;
15665;SDS011;20725;51.196;3.510;2023-01-24T05:11:24;41.63;;;29.43;;
15665;SDS011;20725;51.196;3.510;2023-01-24T05:13:51;39.40;;;28.47;;
15665;SDS011;20725;51.196;3.510;2023-01-24T05:16:18;40.20;;;28.73;;
15665;SDS011;20725;51.196;3.510;2023-01-24T05:18:45;39.70;;;28.80;;
15665;SDS011;20725;51.196;3.510;2023-01-24T05:21:14;38.37;;;29.57;;
15665;SDS011;20725;51.196;3.510;2023-01-24T05:23:42;40.17;;;29.53;;
15665;SDS011;20725;51.196;3.510;2023-01-24T05:26:10;40.03;;;27.80;;
15665;SDS011;20725;51.196;3.510;2023-01-24T05:28:37;36.97;;;26.40;;
15665;SDS011;20725;51.196;3.510;2023-01-24T05:31:04;37.40;;;26.87;;
15665;SDS011;20725;51.196;3.510;2023-01-24T05:33:33;39.03;;;27.27;;
15665;SDS011;20725;51.196;3.510;2023-01-24T05:36:00;38.93;;;28.40;;
15665;SDS011;20725;51.196;3.510;2023-01-24T05:38:28;37.63;;;27.77;;
15665;SDS011;20725;51.196;3.510;2023-01-24T05:40:58;36.40;;;28.07;;
15665;SDS011;20725;51.196;3.510;2023-01-24T05:43:26;37.23;;;27.57;;
15665;SDS011;20725;51.196;3.510;2023-01-24T05:45:56;36.10;;;28.03;;
15665;SDS011;20725;51.196;3.510;2023-01-24T05:48:24;39.47;;;28.40;;
15665;SDS011;20725;51.196;3.510;2023-01-24T05:50:55;37.93;;;28.70;;
15665;SDS011;20725;51.196;3.510;2023-01-24T05:53:22;40.97;;;29.73;;
15665;SDS011;20725;51.196;3.510;2023-01-24T05:55:53;38.97;;;27.30;;
15665;SDS011;20725;51.196;3.510;2023-01-24T05:58:21;39.53;;;28.70;;
15665;SDS011;20725;51.196;3.510;2023-01-24T06:00:49;35.13;;;26.03;;
15665;SDS011;20725;51.196;3.510;2023-01-24T06:03:16;38.73;;;27.40;;
15665;SDS011;20725;51.196;3.510;2023-01-24T06:05:44;36.97;;;26.37;;
15665;SDS011;20725;51.196;3.510;2023-01-24T06:08:12;37.10;;;27.63;;
15665;SDS011;20725;51.196;3.510;2023-01-24T06:10:39;35.00;;;26.77;;
15665;SDS011;20725;51.196;3.510;2023-01-24T06:13:06;38.97;;;27.43;;
15665;SDS011;20725;51.196;3.510;2023-01-24T06:15:33;38.67;;;28.47;;
15665;SDS011;20725;51.196;3.510;2023-01-24T06:18:02;35.80;;;26.97;;
15665;SDS011;20725;51.196;3.510;2023-01-24T06:20:30;37.30;;;27.43;;
15665;SDS011;20725;51.196;3.510;2023-01-24T06:22:59;33.33;;;25.97;;
15665;SDS011;20725;51.196;3.510;2023-01-24T06:25:29;34.67;;;26.23;;
15665;SDS011;20725;51.196;3.510;2023-01-24T06:27:57;36.33;;;26.07;;
15665;SDS011;20725;51.196;3.510;2023-01-24T06:30:25;36.07;;;26.90;;
15665;SDS011;20725;51.196;3.510;2023-01-24T06:33:06;35.50;;;27.20;;
15665;SDS011;20725;51.196;3.510;2023-01-24T06:35:46;33.80;;;25.07;;
15665;SDS011;20725;51.196;3.510;2023-01-24T06:38:25;36.60;;;27.40;;
15665;SDS011;20725;51.196;3.510;2023-01-24T06:40:52;34.43;;;26.43;;
15665;SDS011;20725;51.196;3.510;2023-01-24T06:43:22;38.50;;;26.97;;
15665;SDS011;20725;51.196;3.510;2023-01-24T06:45:49;37.60;;;27.93;;
15665;SDS011;20725;51.196;3.510;2023-01-24T06:48:17;34.60;;;25.87;;
15665;SDS011;20725;51.196;3.510;2023-01-24T06:50:44;35.93;;;26.07;;
15665;SDS011;20725;51.196;3.510;2023-01-24T06:53:11;34.47;;;26.63;;
15665;SDS011;20725;51.196;3.510;2023-01-24T06:55:39;34.67;;;26.03;;
15665;SDS011;20725;51.196;3.510;2023-01-24T06:58:09;37.17;;;27.27;;
15665;SDS011;20725;51.196;3.510;2023-01-24T07:00:36;34.60;;;26.70;;
15665;SDS011;20725;51.196;3.510;2023-01-24T07:03:03;38.97;;;28.30;;
15665;SDS011;20725;51.196;3.510;2023-01-24T07:05:35;38.33;;;28.10;;
15665;SDS011;20725;51.196;3.510;2023-01-24T07:08:03;35.20;;;27.17;;
15665;SDS011;20725;51.196;3.510;2023-01-24T07:10:31;35.93;;;26.13;;
15665;SDS011;20725;51.196;3.510;2023-01-24T07:12:58;34.73;;;26.17;;
15665;SDS011;20725;51.196;3.510;2023-01-24T07:15:25;34.73;;;26.53;;
15665;SDS011;20725;51.196;3.510;2023-01-24T07:17:52;36.77;;;26.73;;
15665;SDS011;20725;51.196;3.510;2023-01-24T07:20:19;39.23;;;27.33;;
15665;SDS011;20725;51.196;3.510;2023-01-24T07:22:48;36.77;;;26.50;;
15665;SDS011;20725;51.196;3.510;2023-01-24T07:25:17;36.73;;;27.93;;
15665;SDS011;20725;51.196;3.510;2023-01-24T07:27:46;39.83;;;26.50;;
15665;SDS011;20725;51.196;3.510;2023-01-24T07:30:13;36.53;;;26.73;;
15665;SDS011;20725;51.196;3.510;2023-01-24T07:32:40;36.47;;;28.13;;
15665;SDS011;20725;51.196;3.510;2023-01-24T07:35:07;34.57;;;26.33;;
15665;SDS011;20725;51.196;3.510;2023-01-24T07:37:34;36.97;;;27.47;;
15665;SDS011;20725;51.196;3.510;2023-01-24T07:40:03;34.63;;;25.90;;
15665;SDS011;20725;51.196;3.510;2023-01-24T07:42:30;34.70;;;26.23;;
15665;SDS011;20725;51.196;3.510;2023-01-24T07:44:57;33.03;;;25.30;;
15665;SDS011;20725;51.196;3.510;2023-01-24T07:47:24;35.10;;;26.60;;
15665;SDS011;20725;51.196;3.510;2023-01-24T07:49:52;34.37;;;25.63;;
15665;SDS011;20725;51.196;3.510;2023-01-24T07:52:19;34.33;;;25.13;;
15665;SDS011;20725;51.196;3.510;2023-01-24T07:54:46;36.53;;;26.03;;
15665;SDS011;20725;51.196;3.510;2023-01-24T07:57:15;36.87;;;26.80;;
15665;SDS011;20725;51.196;3.510;2023-01-24T07:59:42;34.20;;;26.53;;
15665;SDS011;20725;51.196;3.510;2023-01-24T08:02:09;34.97;;;26.47;;
15665;SDS011;20725;51.196;3.510;2023-01-24T08:04:37;37.70;;;26.67;;
15665;SDS011;20725;51.196;3.510;2023-01-24T08:07:04;31.77;;;25.43;;
15665;SDS011;20725;51.196;3.510;2023-01-24T08:09:43;35.53;;;26.50;;
15665;SDS011;20725;51.196;3.510;2023-01-24T08:12:11;36.00;;;25.80;;
15665;SDS011;20725;51.196;3.510;2023-01-24T08:14:40;34.37;;;25.47;;
15665;SDS011;20725;51.196;3.510;2023-01-24T08:17:07;32.30;;;24.30;;
15665;SDS011;20725;51.196;3.510;2023-01-24T08:19:34;34.27;;;26.73;;
15665;SDS011;20725;51.196;3.510;2023-01-24T08:22:03;32.13;;;24.57;;
15665;SDS011;20725;51.196;3.510;2023-01-24T08:24:30;32.97;;;24.77;;
15665;SDS011;20725;51.196;3.510;2023-01-24T08:26:58;32.70;;;25.20;;
15665;SDS011;20725;51.196;3.510;2023-01-24T08:29:25;31.97;;;25.50;;
15665;SDS011;20725;51.196;3.510;2023-01-24T08:31:54;34.43;;;24.80;;
15665;SDS011;20725;51.196;3.510;2023-01-24T08:34:21;32.50;;;24.47;;
15665;SDS011;20725;51.196;3.510;2023-01-24T08:36:48;34.33;;;26.77;;
15665;SDS011;20725;51.196;3.510;2023-01-24T08:39:15;32.77;;;25.63;;
15665;SDS011;20725;51.196;3.510;2023-01-24T08:41:42;33.07;;;24.23;;
15665;SDS011;20725;51.196;3.510;2023-01-24T08:44:11;31.40;;;24.93;;
15665;SDS011;20725;51.196;3.510;2023-01-24T08:46:38;37.37;;;25.27;;
15665;SDS011;20725;51.196;3.510;2023-01-24T08:49:08;32.33;;;23.90;;
15665;SDS011;20725;51.196;3.510;2023-01-24T08:51:36;29.33;;;23.80;;
15665;SDS011;20725;51.196;3.510;2023-01-24T08:54:03;31.60;;;24.10;;
15665;SDS011;20725;51.196;3.510;2023-01-24T08:56:31;31.33;;;24.33;;
15665;SDS011;20725;51.196;3.510;2023-01-24T08:58:59;30.17;;;23.97;;
15665;SDS011;20725;51.196;3.510;2023-01-24T09:01:27;29.83;;;24.43;;
15665;SDS011;20725;51.196;3.510;2023-01-24T09:03:54;31.60;;;24.30;;
15665;SDS011;20725;51.196;3.510;2023-01-24T09:06:23;30.13;;;24.27;;
15665;SDS011;20725;51.196;3.510;2023-01-24T09:08:51;29.83;;;23.27;;
15665;SDS011;20725;51.196;3.510;2023-01-24T09:11:19;29.77;;;24.43;;
15665;SDS011;20725;51.196;3.510;2023-01-24T09:13:46;31.77;;;25.07;;
15665;SDS011;20725;51.196;3.510;2023-01-24T09:16:13;28.13;;;23.87;;
15665;SDS011;20725;51.196;3.510;2023-01-24T09:18:40;33.20;;;25.07;;
15665;SDS011;20725;51.196;3.510;2023-01-24T09:21:08;33.13;;;24.53;;
15665;SDS011;20725;51.196;3.510;2023-01-24T09:23:36;31.63;;;23.73;;
15665;SDS011;20725;51.196;3.510;2023-01-24T09:26:03;30.07;;;22.43;;
15665;SDS011;20725;51.196;3.510;2023-01-24T09:28:30;29.80;;;23.57;;
15665;SDS011;20725;51.196;3.510;2023-01-24T09:31:00;31.57;;;24.97;;
15665;SDS011;20725;51.196;3.510;2023-01-24T09:33:29;32.60;;;24.90;;
15665;SDS011;20725;51.196;3.510;2023-01-24T09:35:56;34.03;;;26.33;;
15665;SDS011;20725;51.196;3.510;2023-01-24T09:38:25;34.87;;;25.57;;
15665;SDS011;20725;51.196;3.510;2023-01-24T09:40:56;32.83;;;25.60;;
15665;SDS011;20725;51.196;3.510;2023-01-24T09:43:34;34.20;;;27.00;;
15665;SDS011;20725;51.196;3.510;2023-01-24T09:46:23;32.57;;;25.93;;
15665;SDS011;20725;51.196;3.510;2023-01-24T09:49:01;31.57;;;25.70;;
15665;SDS011;20725;51.196;3.510;2023-01-24T09:51:37;33.40;;;26.40;;
15665;SDS011;20725;51.196;3.510;2023-01-24T09:54:08;30.23;;;24.50;;
15665;SDS011;20725;51.196;3.510;2023-01-24T09:56:43;33.07;;;25.10;;
15665;SDS011;20725;51.196;3.510;2023-01-24T09:59:18;33.77;;;26.67;;
15665;SDS011;20725;51.196;3.510;2023-01-24T10:01:48;32.03;;;25.37;;
15665;SDS011;20725;51.196;3.510;2023-01-24T10:04:16;30.93;;;24.80;;
15665;SDS011;20725;51.196;3.510;2023-01-24T10:09:43;33.57;;;26.13;;
15665;SDS011;20725;51.196;3.510;2023-01-24T10:12:26;34.03;;;25.30;;
15665;SDS011;20725;51.196;3.510;2023-01-24T10:15:09;32.73;;;26.57;;
15665;SDS011;20725;51.196;3.510;2023-01-24T10:17:49;33.27;;;26.47;;
15665;SDS011;20725;51.196;3.510;2023-01-24T10:20:28;30.53;;;24.90;;
15665;SDS011;20725;51.196;3.510;2023-01-24T10:23:06;31.00;;;24.30;;
15665;SDS011;20725;51.196;3.510;2023-01-24T10:25:45;32.33;;;24.93;;
15665;SDS011;20725;51.196;3.510;2023-01-24T10:28:18;30.27;;;25.77;;
15665;SDS011;20725;51.196;3.510;2023-01-24T10:30:52;29.73;;;24.70;;
15665;SDS011;20725;51.196;3.510;2023-01-24T10:33:26;34.47;;;25.43;;
15665;SDS011;20725;51.196;3.510;2023-01-24T10:35:58;31.80;;;23.77;;
15665;SDS011;20725;51.196;3.510;2023-01-24T10:38:30;32.17;;;24.47;;
15665;SDS011;20725;51.196;3.510;2023-01-24T10:41:00;27.93;;;23.60;;
15665;SDS011;20725;51.196;3.510;2023-01-24T10:43:44;30.63;;;23.97;;
15665;SDS011;20725;51.196;3.510;2023-01-24T10:46:19;32.97;;;24.30;;
15665;SDS011;20725;51.196;3.510;2023-01-24T10:49:11;29.13;;;23.47;;
15665;SDS011;20725;51.196;3.510;2023-01-24T10:51:43;30.70;;;25.27;;
15665;SDS011;20725;51.196;3.510;2023-01-24T10:54:40;35.40;;;26.33;;
15665;SDS011;20725;51.196;3.510;2023-01-24T10:57:13;32.93;;;26.00;;
15665;SDS011;20725;51.196;3.510;2023-01-24T10:59:47;34.87;;;24.63;;
15665;SDS011;20725;51.196;3.510;2023-01-24T11:02:19;35.13;;;25.70;;
15665;SDS011;20725;51.196;3.510;2023-01-24T11:04:47;31.30;;;24.60;;
15665;SDS011;20725;51.196;3.510;2023-01-24T11:07:27;34.60;;;25.90;;
15665;SDS011;20725;51.196;3.510;2023-01-24T11:10:00;31.67;;;25.77;;
15665;SDS011;20725;51.196;3.510;2023-01-24T11:12:33;31.03;;;24.90;;
15665;SDS011;20725;51.196;3.510;2023-01-24T11:15:02;31.40;;;24.70;;
15665;SDS011;20725;51.196;3.510;2023-01-24T11:17:31;33.83;;;25.23;;
15665;SDS011;20725;51.196;3.510;2023-01-24T11:20:02;30.50;;;25.33;;
15665;SDS011;20725;51.196;3.510;2023-01-24T11:22:43;29.17;;;23.67;;
15665;SDS011;20725;51.196;3.510;2023-01-24T11:25:16;27.27;;;24.00;;
15665;SDS011;20725;51.196;3.510;2023-01-24T11:27:47;29.97;;;23.67;;
15665;SDS011;20725;51.196;3.510;2023-01-24T11:30:16;29.70;;;24.60;;
15665;SDS011;20725;51.196;3.510;2023-01-24T11:32:52;32.30;;;25.53;;
15665;SDS011;20725;51.196;3.510;2023-01-24T11:35:28;30.17;;;25.40;;
15665;SDS011;20725;51.196;3.510;2023-01-24T11:38:05;33.73;;;26.87;;
15665;SDS011;20725;51.196;3.510;2023-01-24T11:40:51;29.07;;;24.03;;
15665;SDS011;20725;51.196;3.510;2023-01-24T11:43:29;28.33;;;23.90;;
15665;SDS011;20725;51.196;3.510;2023-01-24T11:46:15;29.73;;;24.33;;
15665;SDS011;20725;51.196;3.510;2023-01-24T11:48:52;35.10;;;24.30;;
15665;SDS011;20725;51.196;3.510;2023-01-24T11:51:23;31.93;;;25.87;;
15665;SDS011;20725;51.196;3.510;2023-01-24T11:54:07;28.97;;;23.33;;
15665;SDS011;20725;51.196;3.510;2023-01-24T11:56:47;30.47;;;25.17;;
15665;SDS011;20725;51.196;3.510;2023-01-24T11:59:28;29.80;;;24.67;;
15665;SDS011;20725;51.196;3.510;2023-01-24T12:05:23;32.70;;;25.00;;
15665;SDS011;20725;51.196;3.510;2023-01-24T12:07:59;29.47;;;23.57;;
15665;SDS011;20725;51.196;3.510;2023-01-24T12:10:38;31.60;;;25.73;;
15665;SDS011;20725;51.196;3.510;2023-01-24T12:13:17;30.03;;;24.80;;
15665;SDS011;20725;51.196;3.510;2023-01-24T12:15:53;29.27;;;24.40;;
15665;SDS011;20725;51.196;3.510;2023-01-24T12:18:31;32.67;;;24.57;;
15665;SDS011;20725;51.196;3.510;2023-01-24T12:21:10;26.97;;;22.80;;
15665;SDS011;20725;51.196;3.510;2023-01-24T12:23:42;31.63;;;23.93;;
15665;SDS011;20725;51.196;3.510;2023-01-24T12:26:17;31.07;;;24.20;;
15665;SDS011;20725;51.196;3.510;2023-01-24T12:28:49;28.30;;;23.23;;
15665;SDS011;20725;51.196;3.510;2023-01-24T12:31:25;30.73;;;24.37;;
15665;SDS011;20725;51.196;3.510;2023-01-24T12:34:04;31.60;;;24.83;;
15665;SDS011;20725;51.196;3.510;2023-01-24T12:36:43;27.50;;;23.03;;
15665;SDS011;20725;51.196;3.510;2023-01-24T12:39:15;30.63;;;24.43;;
15665;SDS011;20725;51.196;3.510;2023-01-24T12:41:49;30.43;;;24.60;;
15665;SDS011;20725;51.196;3.510;2023-01-24T12:44:26;30.03;;;24.27;;
15665;SDS011;20725;51.196;3.510;2023-01-24T12:47:08;28.53;;;23.50;;
15665;SDS011;20725;51.196;3.510;2023-01-24T12:49:51;30.90;;;23.93;;
15665;SDS011;20725;51.196;3.510;2023-01-24T12:52:29;30.90;;;24.70;;
15665;SDS011;20725;51.196;3.510;2023-01-24T12:55:04;31.93;;;23.73;;
15665;SDS011;20725;51.196;3.510;2023-01-24T12:57:39;30.40;;;24.13;;
15665;SDS011;20725;51.196;3.510;2023-01-24T13:00:16;29.87;;;23.67;;
15665;SDS011;20725;51.196;3.510;2023-01-24T13:02:49;29.47;;;23.77;;
15665;SDS011;20725;51.196;3.510;2023-01-24T13:05:33;27.03;;;22.60;;
15665;SDS011;20725;51.196;3.510;2023-01-24T13:08:14;29.83;;;23.07;;
15665;SDS011;20725;51.196;3.510;2023-01-24T13:10:52;27.70;;;22.80;;
15665;SDS011;20725;51.196;3.510;2023-01-24T13:13:28;28.93;;;22.27;;
15665;SDS011;20725;51.196;3.510;2023-01-24T13:16:03;31.73;;;24.57;;
15665;SDS011;20725;51.196;3.510;2023-01-24T13:18:42;28.87;;;23.33;;
15665;SDS011;20725;51.196;3.510;2023-01-24T13:21:23;32.77;;;24.33;;
15665;SDS011;20725;51.196;3.510;2023-01-24T13:24:01;28.17;;;23.57;;
15665;SDS011;20725;51.196;3.510;2023-01-24T13:26:51;32.87;;;24.87;;
15665;SDS011;20725;51.196;3.510;2023-01-24T13:29:38;31.97;;;25.60;;
15665;SDS011;20725;51.196;3.510;2023-01-24T13:32:14;33.03;;;25.27;;
15665;SDS011;20725;51.196;3.510;2023-01-24T13:34:44;30.97;;;24.93;;
15665;SDS011;20725;51.196;3.510;2023-01-24T13:37:18;30.53;;;25.20;;
15665;SDS011;20725;51.196;3.510;2023-01-24T13:39:58;29.73;;;24.80;;
15665;SDS011;20725;51.196;3.510;2023-01-24T13:42:31;31.90;;;24.33;;
15665;SDS011;20725;51.196;3.510;2023-01-24T13:48:03;34.83;;;24.40;;
15665;SDS011;20725;51.196;3.510;2023-01-24T13:50:55;31.07;;;23.73;;
15665;SDS011;20725;51.196;3.510;2023-01-24T13:53:56;32.27;;;26.30;;
15665;SDS011;20725;51.196;3.510;2023-01-24T13:56:25;30.87;;;23.70;;
15665;SDS011;20725;51.196;3.510;2023-01-24T13:58:52;30.07;;;23.07;;
15665;SDS011;20725;51.196;3.510;2023-01-24T14:01:20;27.13;;;22.13;;
15665;SDS011;20725;51.196;3.510;2023-01-24T14:03:55;30.03;;;22.63;;
15665;SDS011;20725;51.196;3.510;2023-01-24T14:06:26;29.30;;;22.53;;
15665;SDS011;20725;51.196;3.510;2023-01-24T14:09:13;33.90;;;23.27;;
15665;SDS011;20725;51.196;3.510;2023-01-24T14:14:59;30.73;;;24.20;;
15665;SDS011;20725;51.196;3.510;2023-01-24T14:17:43;32.17;;;24.43;;
15665;SDS011;20725;51.196;3.510;2023-01-24T14:20:26;33.83;;;25.47;;
15665;SDS011;20725;51.196;3.510;2023-01-24T14:23:02;33.00;;;25.57;;
15665;SDS011;20725;51.196;3.510;2023-01-24T14:25:40;33.53;;;25.13;;
15665;SDS011;20725;51.196;3.510;2023-01-24T14:28:18;33.87;;;25.10;;
15665;SDS011;20725;51.196;3.510;2023-01-24T14:30:54;34.93;;;24.60;;
15665;SDS011;20725;51.196;3.510;2023-01-24T14:33:39;32.80;;;25.67;;
15665;SDS011;20725;51.196;3.510;2023-01-24T14:36:26;29.73;;;23.80;;
15665;SDS011;20725;51.196;3.510;2023-01-24T14:41:43;33.20;;;25.63;;
15665;SDS011;20725;51.196;3.510;2023-01-24T14:44:19;31.00;;;25.07;;
15665;SDS011;20725;51.196;3.510;2023-01-24T14:46:55;34.40;;;25.50;;
15665;SDS011;20725;51.196;3.510;2023-01-24T14:49:25;31.93;;;24.00;;
15665;SDS011;20725;51.196;3.510;2023-01-24T14:51:54;34.47;;;24.13;;
15665;SDS011;20725;51.196;3.510;2023-01-24T14:54:23;33.00;;;24.33;;
15665;SDS011;20725;51.196;3.510;2023-01-24T14:56:51;35.80;;;25.90;;
15665;SDS011;20725;51.196;3.510;2023-01-24T14:59:18;30.57;;;23.87;;
15665;SDS011;20725;51.196;3.510;2023-01-24T15:01:48;31.53;;;24.40;;
15665;SDS011;20725;51.196;3.510;2023-01-24T15:04:20;32.83;;;24.77;;
15665;SDS011;20725;51.196;3.510;2023-01-24T15:07:02;32.07;;;24.00;;